Time;durP1;ratioP1;P1;durP2;ratioP2;P2;SDS_P1;SDS_P2;PMS_P1;PMS_P2;Temp;Humidity;BMP_temperature;BMP_pressure;BME280_temperature;BME280_humidity;BME280_pressure;Samples;Min_cycle;Max_cycle;Signal;HPM_P1;HPM_P2
2021/04/14 00:02:17;;;;;;;0.27;0.27;;;;;;;0.34;89.28;101888.75;4994267;28;20216;-73
2021/04/14 00:04:42;;;;;;;0.33;0.33;;;;;;;0.34;89.92;101886.88;4994338;28;20527;-73
2021/04/14 00:07:13;;;;;;;0.63;0.53;;;;;;;0.33;90.07;101881.72;4994246;28;20173;-73
2021/04/14 00:09:38;;;;;;;0.13;0.13;;;;;;;0.34;90.04;101884.19;4994167;28;20621;-73
2021/04/14 00:12:04;;;;;;;3.90;0.23;;;;;;;0.34;89.97;101880.69;4994030;28;20432;-73
2021/04/14 00:14:29;;;;;;;0.30;0.30;;;;;;;0.28;89.96;101885.00;4994448;28;20394;-76
2021/04/14 00:16:56;;;;;;;0.10;0.10;;;;;;;0.24;90.57;101881.91;4994240;28;20181;-72
2021/04/14 00:19:21;;;;;;;0.20;0.20;;;;;;;0.18;90.32;101881.94;4994386;28;20177;-73
2021/04/14 00:21:47;;;;;;;0.00;0.00;;;;;;;0.15;90.56;101883.19;5009036;28;20659;-73
2021/04/14 00:24:14;;;;;;;0.00;0.00;;;;;;;0.11;90.51;101878.41;4993756;28;20173;-74
2021/04/14 00:26:39;;;;;;;0.20;0.10;;;;;;;0.16;90.76;101878.63;4993901;28;20239;-73
2021/04/14 00:29:05;;;;;;;0.00;0.00;;;;;;;0.14;91.06;101880.66;4993844;28;20817;-73
2021/04/14 00:31:39;;;;;;;0.23;0.23;;;;;;;0.01;90.87;101878.00;4993825;28;20189;-74
2021/04/14 00:34:10;;;;;;;0.20;0.20;;;;;;;0.03;91.34;101881.31;4993606;28;20695;-73
2021/04/14 00:36:37;;;;;;;0.10;0.10;;;;;;;0.07;91.19;101878.00;4993870;28;20527;-74
2021/04/14 00:39:05;;;;;;;0.13;0.13;;;;;;;-0.02;90.96;101880.06;4993646;28;20510;-74
2021/04/14 00:41:30;;;;;;;0.00;0.00;;;;;;;-0.13;91.41;101874.50;4993521;28;20805;-73
2021/04/14 00:43:56;;;;;;;0.03;0.03;;;;;;;-0.20;91.27;101877.16;4993521;28;20427;-73
2021/04/14 00:46:22;;;;;;;0.00;0.00;;;;;;;-0.25;92.00;101871.56;4993586;28;20185;-73
2021/04/14 00:48:48;;;;;;;0.00;0.00;;;;;;;-0.24;92.25;101883.16;4993483;28;20534;-73
2021/04/14 00:51:13;;;;;;;0.57;0.13;;;;;;;-0.25;92.88;101871.56;4993454;28;20429;-73
2021/04/14 00:53:38;;;;;;;0.03;0.03;;;;;;;-0.13;93.04;101869.13;4992942;28;20185;-73
2021/04/14 00:56:04;;;;;;;0.00;0.00;;;;;;;-0.08;92.78;101878.19;4993360;28;20180;-74
2021/04/14 00:58:30;;;;;;;0.50;0.50;;;;;;;0.07;92.62;101872.63;4993307;28;20177;-73
2021/04/14 01:00:56;;;;;;;0.20;0.17;;;;;;;0.18;92.22;101877.38;4993171;28;20170;-73
2021/04/14 01:03:31;;;;;;;0.03;0.03;;;;;;;0.26;92.28;101879.03;4993106;28;20184;-73
2021/04/14 01:05:59;;;;;;;0.00;0.00;;;;;;;0.36;91.80;101873.22;4993122;28;20400;-73
2021/04/14 01:08:24;;;;;;;0.13;0.13;;;;;;;0.56;91.13;101869.47;4991835;28;20772;-73
2021/04/14 01:10:51;;;;;;;0.10;0.10;;;;;;;0.73;90.86;101874.44;4992988;28;20456;-74
2021/04/14 01:13:17;;;;;;;0.00;0.00;;;;;;;0.85;90.50;101865.47;4992900;28;20656;-74
2021/04/14 01:15:45;;;;;;;0.20;0.20;;;;;;;0.97;89.57;101870.19;4992996;28;20432;-73
2021/04/14 01:18:32;;;;;;;0.27;0.20;;;;;;;1.04;89.40;101869.16;4993021;28;20195;-73
2021/04/14 01:20:59;;;;;;;0.00;0.00;;;;;;;1.09;88.61;101872.00;4993031;28;20432;-75
2021/04/14 01:23:27;;;;;;;0.50;0.50;;;;;;;1.13;88.75;101873.22;4992711;28;20429;-73
2021/04/14 01:25:53;;;;;;;0.00;0.00;;;;;;;1.16;88.22;101863.94;4992835;28;20420;-73
2021/04/14 01:28:22;;;;;;;0.50;0.50;;;;;;;1.16;88.42;101862.06;4992838;28;20424;-73
2021/04/14 01:30:51;;;;;;;0.07;0.07;;;;;;;1.15;88.21;101860.38;4992630;28;20532;-72
2021/04/14 01:33:17;;;;;;;0.20;0.20;;;;;;;1.14;88.28;101861.41;4992458;28;20420;-73
2021/04/14 01:35:43;;;;;;;0.10;0.10;;;;;;;1.14;88.27;101863.28;4992657;28;20900;-75
2021/04/14 01:38:08;;;;;;;0.63;0.30;;;;;;;1.12;88.31;101868.88;4992540;28;20413;-74
2021/04/14 01:40:35;;;;;;;0.10;0.10;;;;;;;1.14;87.83;101869.50;4992351;28;20240;-73
2021/04/14 01:43:01;;;;;;;0.07;0.07;;;;;;;1.13;88.19;101857.06;4992306;28;20227;-72
2021/04/14 01:45:30;;;;;;;0.00;0.00;;;;;;;1.12;88.68;101862.69;4992356;28;20900;-74
2021/04/14 01:47:55;;;;;;;0.00;0.00;;;;;;;1.12;87.95;101866.19;4992338;28;20180;-73
2021/04/14 01:50:22;;;;;;;0.07;0.07;;;;;;;1.11;88.27;101867.22;5007377;28;20424;-74
2021/04/14 01:52:47;;;;;;;0.47;0.47;;;;;;;1.12;88.22;101868.88;4992143;28;20750;-73
2021/04/14 01:55:13;;;;;;;1.13;1.13;;;;;;;1.09;88.26;101869.31;4992169;28;20435;-74
2021/04/14 01:57:39;;;;;;;8.70;1.33;;;;;;;1.08;87.89;101869.53;4992282;28;20260;-73
2021/04/14 02:00:14;;;;;;;0.00;0.00;;;;;;;1.03;88.03;101870.19;4992470;28;20696;-73
2021/04/14 02:02:40;;;;;;;0.00;0.00;;;;;;;0.96;88.52;101863.16;4992051;28;20464;-73
2021/04/14 02:05:06;;;;;;;0.67;0.67;;;;;;;0.93;88.65;101869.81;4991498;28;20444;-74
2021/04/14 02:07:31;;;;;;;0.40;0.40;;;;;;;0.89;88.30;101863.19;4991951;28;20204;-73
2021/04/14 02:09:57;;;;;;;4.47;0.90;;;;;;;0.82;88.38;101859.69;4992013;28;20428;-73
2021/04/14 02:12:22;;;;;;;0.00;0.00;;;;;;;0.77;88.60;101862.19;4992159;28;20203;-73
2021/04/14 02:14:47;;;;;;;27.40;1.50;;;;;;;0.74;88.94;101866.13;5006976;28;20539;-73
2021/04/14 02:17:13;;;;;;;0.57;0.53;;;;;;;0.74;89.13;101865.31;4990612;28;20181;-73
2021/04/14 02:19:38;;;;;;;0.13;0.13;;;;;;;0.72;89.53;101862.81;4991949;28;20177;-73
2021/04/14 02:22:03;;;;;;;0.37;0.37;;;;;;;0.76;89.24;101865.94;4991666;28;20243;-73
2021/04/14 02:24:29;;;;;;;0.40;0.40;;;;;;;0.82;89.21;101870.44;4991869;28;20181;-74
2021/04/14 02:26:54;;;;;;;0.13;0.13;;;;;;;0.81;88.98;101868.78;4992162;28;20256;-74
2021/04/14 02:29:19;;;;;;;0.00;0.00;;;;;;;0.80;89.18;101859.91;4991549;28;20260;-74
2021/04/14 02:31:45;;;;;;;0.57;0.50;;;;;;;0.82;89.11;101860.50;4991698;28;20576;-73
2021/04/14 02:34:12;;;;;;;0.07;0.00;;;;;;;0.78;89.34;101864.66;4991691;28;20169;-74
2021/04/14 02:36:39;;;;;;;7.43;0.93;;;;;;;0.74;89.04;101865.31;4991823;28;20567;-73
2021/04/14 02:39:05;;;;;;;0.77;0.77;;;;;;;0.70;89.43;101859.50;4991567;28;20674;-73
2021/04/14 02:41:30;;;;;;;0.10;0.10;;;;;;;0.66;89.58;101860.97;4991382;28;21101;-74
2021/04/14 02:43:56;;;;;;;0.00;0.00;;;;;;;0.61;89.66;101855.41;4991431;28;20177;-73
2021/04/14 02:46:21;;;;;;;0.60;0.60;;;;;;;0.58;90.30;101856.66;4991462;28;20180;-73
2021/04/14 02:48:49;;;;;;;0.10;0.10;;;;;;;0.57;90.46;101852.28;4991463;28;20195;-73
2021/04/14 02:51:14;;;;;;;0.00;0.00;;;;;;;0.53;89.77;101844.88;4991588;28;20646;-74
2021/04/14 02:53:41;;;;;;;0.33;0.30;;;;;;;0.51;89.88;101850.47;4991132;28;20538;-74
2021/04/14 02:56:07;;;;;;;0.00;0.00;;;;;;;0.48;90.55;101856.25;4991441;28;20456;-73
2021/04/14 02:58:33;;;;;;;0.10;0.10;;;;;;;0.46;90.47;101842.22;4991278;28;20177;-73
2021/04/14 03:00:58;;;;;;;0.30;0.30;;;;;;;0.47;90.87;101849.25;4991465;28;20424;-73
2021/04/14 03:03:51;;;;;;;0.13;0.13;;;;;;;0.46;90.72;101839.53;4991257;28;20185;-73
2021/04/14 03:06:17;;;;;;;0.00;0.00;;;;;;;0.47;90.68;101843.03;4991323;28;20212;-73
2021/04/14 03:08:42;;;;;;;0.00;0.00;;;;;;;0.50;90.58;101842.59;4991249;28;20428;-72
2021/04/14 03:11:07;;;;;;;4.13;0.43;;;;;;;0.49;90.25;101839.09;4991310;28;20706;-73
2021/04/14 03:13:33;;;;;;;0.00;0.00;;;;;;;0.50;90.97;101838.06;4991491;28;20174;-73
2021/04/14 03:15:59;;;;;;;0.23;0.23;;;;;;;0.38;90.68;101837.03;4991757;28;20721;-73
2021/04/14 03:18:24;;;;;;;0.40;0.40;;;;;;;0.35;90.48;101837.47;4995132;28;20581;-74
2021/04/14 03:20:49;;;;;;;0.30;0.30;;;;;;;0.33;91.05;101841.41;4995111;28;20280;-74
2021/04/14 03:23:16;;;;;;;0.07;0.07;;;;;;;0.27;91.12;101832.28;4994996;28;20572;-72
2021/04/14 03:25:42;;;;;;;0.00;0.00;;;;;;;0.23;91.15;101841.81;4995051;28;20497;-75
2021/04/14 03:28:08;;;;;;;1.37;0.60;;;;;;;0.18;91.94;101842.44;4994957;28;20872;-74
2021/04/14 03:30:33;;;;;;;0.13;0.13;;;;;;;0.17;91.61;101843.50;4995053;28;20188;-74
2021/04/14 03:32:59;;;;;;;0.00;0.00;;;;;;;0.12;91.93;101837.06;4994874;28;20213;-73
2021/04/14 03:35:26;;;;;;;0.30;0.30;;;;;;;0.12;92.47;101834.38;4994943;28;20211;-74
2021/04/14 03:37:52;;;;;;;0.10;0.10;;;;;;;0.12;92.23;101834.38;4994857;28;20350;-73
2021/04/14 03:40:18;;;;;;;0.20;0.20;;;;;;;0.07;92.27;101842.25;4994608;28;21010;-74
2021/04/14 03:42:44;;;;;;;0.00;0.00;;;;;;;0.02;92.06;101836.69;4994765;28;20211;-74
2021/04/14 03:45:15;;;;;;;0.93;0.93;;;;;;;0.06;92.21;101832.53;4994762;28;20428;-74
2021/04/14 03:47:42;;;;;;;0.20;0.20;;;;;;;0.09;92.54;101835.63;4994686;28;20672;-73
2021/04/14 03:50:11;;;;;;;0.00;0.00;;;;;;;0.09;92.54;101830.25;4994578;28;20430;-73
2021/04/14 03:52:37;;;;;;;0.50;0.50;;;;;;;0.15;92.94;101831.31;4994561;28;20424;-73
2021/04/14 03:55:04;;;;;;;1.00;1.00;;;;;;;0.12;92.94;101837.91;4994623;28;20915;-72
2021/04/14 03:57:29;;;;;;;0.00;0.00;;;;;;;0.16;92.90;101833.78;4994557;28;20199;-73
2021/04/14 03:59:55;;;;;;;0.07;0.07;;;;;;;0.18;92.84;101833.56;4994542;28;20798;-73
2021/04/14 04:02:20;;;;;;;0.10;0.10;;;;;;;0.19;92.83;101840.59;4994286;28;20247;-74
2021/04/14 04:04:45;;;;;;;0.40;0.40;;;;;;;0.20;92.84;101835.00;4994509;28;20698;-74
2021/04/14 04:07:11;;;;;;;0.17;0.17;;;;;;;0.22;92.73;101838.31;4994430;28;20188;-74
2021/04/14 04:09:36;;;;;;;0.17;0.17;;;;;;;0.21;92.40;101830.47;4994319;28;20532;-73
2021/04/14 04:12:05;;;;;;;0.73;0.70;;;;;;;0.22;92.58;101841.00;4994717;28;20181;-73
2021/04/14 04:14:33;;;;;;;0.00;0.00;;;;;;;0.22;92.80;101832.09;4994191;28;20621;-73
2021/04/14 04:16:59;;;;;;;0.17;0.17;;;;;;;0.21;93.01;101831.28;4994195;28;20452;-74
2021/04/14 04:19:25;;;;;;;0.00;0.00;;;;;;;0.28;93.20;101832.09;4994191;28;20434;-74
2021/04/14 04:21:50;;;;;;;0.10;0.10;;;;;;;0.31;92.90;101838.94;4993984;28;20467;-73
2021/04/14 04:24:15;;;;;;;0.03;0.03;;;;;;;0.38;93.07;101838.91;4994036;28;20651;-73
2021/04/14 04:26:41;;;;;;;0.00;0.00;;;;;;;0.43;92.70;101839.91;4994031;28;20602;-76
2021/04/14 04:29:06;;;;;;;0.00;0.00;;;;;;;0.44;92.60;101838.91;4993244;28;20200;-74
2021/04/14 04:31:31;;;;;;;0.00;0.00;;;;;;;0.49;92.83;101849.03;4994228;28;20192;-74
2021/04/14 04:33:57;;;;;;;0.63;0.63;;;;;;;0.47;92.92;101838.47;4993851;28;20224;-73
2021/04/14 04:36:22;;;;;;;0.30;0.30;;;;;;;0.49;92.82;101843.66;5009122;28;20511;-73
2021/04/14 04:38:48;;;;;;;0.50;0.50;;;;;;;0.47;92.39;101856.47;4993746;28;20181;-73
2021/04/14 04:41:13;;;;;;;0.30;0.30;;;;;;;0.47;92.72;101860.00;4993616;28;20219;-74
2021/04/14 04:43:40;;;;;;;0.00;0.00;;;;;;;0.43;92.43;101864.13;4993777;28;20177;-74
2021/04/14 04:46:06;;;;;;;11.50;0.33;;;;;;;0.39;92.37;101856.69;4993622;28;20173;-73
2021/04/14 04:48:31;;;;;;;0.40;0.40;;;;;;;0.40;92.82;101858.34;4993477;28;20429;-74
2021/04/14 04:50:56;;;;;;;0.40;0.40;;;;;;;0.40;93.05;101867.22;4993448;28;20177;-73
2021/04/14 04:53:24;;;;;;;0.00;0.00;;;;;;;0.37;92.65;101859.59;5008635;28;20451;-74
2021/04/14 04:55:50;;;;;;;0.00;0.00;;;;;;;0.38;92.61;101871.16;4993558;28;20169;-74
2021/04/14 04:58:17;;;;;;;0.17;0.17;;;;;;;0.32;92.77;101872.84;4993786;28;20423;-74
2021/04/14 05:00:43;;;;;;;0.30;0.10;;;;;;;0.37;93.00;101874.88;4993522;28;20421;-74
2021/04/14 05:03:11;;;;;;;0.10;0.10;;;;;;;0.38;92.95;101877.38;4993206;28;21192;-73
2021/04/14 05:05:38;;;;;;;0.10;0.10;;;;;;;0.42;92.82;101873.22;4993322;28;20416;-77
2021/04/14 05:08:07;;;;;;;9.87;0.20;;;;;;;0.44;92.98;101871.16;4993291;28;20420;-76
2021/04/14 05:10:34;;;;;;;0.63;0.63;;;;;;;0.46;93.01;101879.03;4993317;28;20431;-74
2021/04/14 05:12:59;;;;;;;0.20;0.10;;;;;;;0.47;93.01;101878.81;4993034;28;20503;-76
2021/04/14 05:15:28;;;;;;;0.27;0.27;;;;;;;0.48;92.90;101875.09;4992983;28;20520;-74
2021/04/14 05:17:53;;;;;;;0.43;0.43;;;;;;;0.48;92.80;101876.94;4993172;28;20173;-75
2021/04/14 05:20:19;;;;;;;0.23;0.23;;;;;;;0.48;92.95;101893.91;4992822;28;20443;-75
2021/04/14 05:22:45;;;;;;;1.60;1.27;;;;;;;0.49;92.93;101884.81;4992836;28;20247;-73
2021/04/14 05:25:14;;;;;;;0.33;0.33;;;;;;;0.53;93.06;101895.97;4992993;28;20174;-73
2021/04/14 05:27:41;;;;;;;0.13;0.13;;;;;;;0.55;93.15;101896.56;4992815;28;20431;-74
2021/04/14 05:30:07;;;;;;;0.67;0.67;;;;;;;0.55;93.21;101891.19;4992706;28;20424;-73
2021/04/14 05:32:33;;;;;;;0.53;0.53;;;;;;;0.56;93.06;101890.16;4992736;28;20428;-74
2021/04/14 05:34:59;;;;;;;5.33;0.57;;;;;;;0.61;92.76;101894.94;4992756;28;20420;-73
2021/04/14 05:37:26;;;;;;;0.27;0.27;;;;;;;0.67;92.81;101896.75;4992839;28;20192;-82
2021/04/14 05:39:52;;;;;;;0.60;0.50;;;;;;;0.72;92.46;101900.47;4991534;28;20551;-75
2021/04/14 05:42:17;;;;;;;0.83;0.83;;;;;;;0.78;92.53;101904.19;4992501;28;20460;-81
2021/04/14 05:44:42;;;;;;;0.63;0.43;;;;;;;0.82;92.04;101894.66;4992681;28;20181;-72
2021/04/14 05:47:08;;;;;;;1.67;1.57;;;;;;;0.88;91.96;101899.22;4992464;28;20177;-73
2021/04/14 05:49:33;;;;;;;1.07;0.90;;;;;;;0.95;92.06;101904.56;4992368;28;20204;-73
2021/04/14 05:51:58;;;;;;;0.00;0.00;;;;;;;0.99;91.38;101905.78;4992798;28;20405;-74
2021/04/14 05:54:23;;;;;;;0.50;0.50;;;;;;;1.03;91.08;101909.72;4995431;28;20181;-71
2021/04/14 05:56:49;;;;;;;0.50;0.50;;;;;;;1.06;90.66;101902.03;4993360;28;20652;-73
2021/04/14 05:59:15;;;;;;;0.70;0.70;;;;;;;1.09;90.91;101901.63;4992327;28;20181;-71
2021/04/14 06:01:43;;;;;;;0.63;0.63;;;;;;;1.12;91.27;101911.13;4992176;28;20651;-73
2021/04/14 06:04:09;;;;;;;0.23;0.17;;;;;;;1.19;90.67;101910.06;4992043;28;20208;-74
2021/04/14 06:06:34;;;;;;;0.60;0.40;;;;;;;1.26;90.36;101903.81;4992033;28;20416;-74
2021/04/14 06:09:00;;;;;;;0.57;0.57;;;;;;;1.28;90.25;101910.63;4992057;28;20177;-73
2021/04/14 06:11:25;;;;;;;0.40;0.40;;;;;;;1.32;90.04;101908.38;4992140;28;20688;-73
2021/04/14 06:13:51;;;;;;;0.50;0.50;;;;;;;1.36;90.21;101912.28;4991915;28;20189;-73
2021/04/14 06:16:16;;;;;;;0.77;0.77;;;;;;;1.40;90.49;101911.63;4991866;28;20235;-77
2021/04/14 06:18:43;;;;;;;3.03;2.00;;;;;;;1.45;89.98;101914.53;4991834;28;20201;-79
2021/04/14 06:21:09;;;;;;;0.13;0.13;;;;;;;1.52;90.24;101919.88;4991859;28;20182;-86
2021/04/14 06:23:34;;;;;;;0.20;0.20;;;;;;;1.60;89.97;101916.94;4991785;28;20465;-84
2021/04/14 06:28:35;;;;;;;2.10;1.30;;;;;;;1.75;90.20;101916.63;4991906;28;20185;-89
2021/04/14 06:31:00;;;;;;;0.33;0.33;;;;;;;1.88;89.80;101921.09;4991753;28;20931;-89
2021/04/14 06:33:27;;;;;;;0.13;0.13;;;;;;;1.99;89.40;101918.53;4991894;28;20466;-86
2021/04/14 06:35:52;;;;;;;0.50;0.50;;;;;;;2.11;88.96;101918.66;4991743;28;20827;-90
2021/04/14 06:38:23;;;;;;;1.47;1.37;;;;;;;2.24;88.85;101918.56;4991626;28;20443;-83
2021/04/14 06:41:25;;;;;;;0.67;0.57;;;;;;;2.38;88.26;101920.09;4991829;28;20647;-88
2021/04/14 06:43:53;;;;;;;0.53;0.53;;;;;;;2.58;88.04;101919.09;4991445;28;20420;-85
2021/04/14 06:46:29;;;;;;;1.17;0.60;;;;;;;2.65;87.76;101912.59;4991509;28;20420;-88
2021/04/14 06:49:28;;;;;;;0.77;0.73;;;;;;;2.78;87.29;101916.22;4991507;28;20430;-83
2021/04/14 06:52:12;;;;;;;0.80;0.80;;;;;;;2.93;87.10;101917.50;4989857;28;20982;-89
2021/04/14 06:54:54;;;;;;;0.60;0.57;;;;;;;2.93;86.65;101916.69;4991499;28;20432;-80
2021/04/14 06:57:27;;;;;;;0.83;0.70;;;;;;;2.92;86.03;101913.16;4991460;28;20817;-81
2021/04/14 06:59:58;;;;;;;1.13;0.73;;;;;;;3.08;87.05;101908.22;4991290;28;20204;-85
2021/04/14 07:02:30;;;;;;;0.00;0.00;;;;;;;3.11;86.33;101915.84;4998304;28;20248;-86
2021/04/14 07:04:58;;;;;;;0.53;0.53;;;;;;;3.07;86.27;101910.09;4999784;28;20416;-89
2021/04/14 07:07:27;;;;;;;0.70;0.70;;;;;;;3.17;86.63;101909.53;4999478;28;20460;-84
2021/04/14 07:09:59;;;;;;;1.10;0.90;;;;;;;3.19;86.03;101907.47;4993919;28;20436;-79
2021/04/14 07:12:25;;;;;;;1.50;1.10;;;;;;;3.18;85.74;101901.25;4991244;28;20431;-78
2021/04/14 07:14:54;;;;;;;0.10;0.10;;;;;;;3.29;85.90;101897.75;4991342;28;20233;-87
2021/04/14 07:17:46;;;;;;;0.60;0.43;;;;;;;3.37;85.81;101907.44;4991149;28;20424;-87
2021/04/14 07:20:21;;;;;;;0.77;0.77;;;;;;;3.49;85.85;101908.31;4983546;28;20196;-80
2021/04/14 07:23:20;;;;;;;0.73;0.73;;;;;;;3.51;85.01;101902.69;5002495;28;20908;-85
2021/04/14 07:26:20;;;;;;;0.37;0.37;;;;;;;3.68;85.49;101902.88;4971854;28;20516;-73
2021/04/14 07:29:16;;;;;;;0.73;0.73;;;;;;;3.66;84.13;101904.97;4966572;28;20250;-84
2021/04/14 07:32:08;;;;;;;1.10;0.87;;;;;;;3.78;84.79;101905.84;4994310;28;20256;-83
2021/04/14 07:34:46;;;;;;;1.40;1.30;;;;;;;3.85;84.76;101906.56;4990290;28;20412;-83
2021/04/14 07:37:27;;;;;;;1.40;1.30;;;;;;;4.02;84.88;101896.72;4989842;28;20416;-87
2021/04/14 07:40:10;;;;;;;2.37;1.30;;;;;;;4.13;84.06;101900.50;4993781;28;20422;-87
2021/04/14 07:43:23;;;;;;;1.30;0.87;;;;;;;4.26;83.37;101899.47;4995975;28;20197;-86
2021/04/14 07:45:50;;;;;;;7.03;1.80;;;;;;;4.32;83.19;101899.34;4930520;29;20218;-76
2021/04/14 07:48:21;;;;;;;0.23;0.23;;;;;;;4.32;81.34;101902.06;4930514;29;20192;-75
2021/04/14 07:50:52;;;;;;;1.27;1.17;;;;;;;4.31;81.24;101894.19;4961630;28;20276;-77
2021/04/14 07:53:24;;;;;;;0.83;0.83;;;;;;;4.21;81.29;101896.66;4991108;28;20166;-76
2021/04/14 07:56:00;;;;;;;1.20;0.67;;;;;;;4.15;81.89;101901.09;4990957;28;20488;-74
2021/04/14 07:58:27;;;;;;;8.73;1.53;;;;;;;4.09;81.35;101902.03;4990982;28;20261;-75
2021/04/14 08:00:52;;;;;;;7.80;1.50;;;;;;;4.24;81.67;101898.91;4990916;28;20169;-75
2021/04/14 08:03:30;;;;;;;5.77;1.07;;;;;;;4.35;80.83;101898.91;4991752;28;20482;-74
2021/04/14 08:06:26;;;;;;;0.90;0.90;;;;;;;4.42;81.27;101896.09;5009676;28;20580;-74
2021/04/14 08:08:52;;;;;;;3.03;0.90;;;;;;;4.63;80.66;101886.53;4993901;28;20196;-74
2021/04/14 08:11:30;;;;;;;1.00;0.80;;;;;;;4.78;78.74;101881.50;4994348;28;20177;-74
2021/04/14 08:14:08;;;;;;;1.77;0.80;;;;;;;4.95;78.74;101884.28;4994230;28;20204;-75
2021/04/14 08:16:38;;;;;;;3.37;1.00;;;;;;;5.10;76.56;101876.47;4994282;28;20208;-75
2021/04/14 08:19:10;;;;;;;1.40;1.23;;;;;;;5.13;73.65;101880.59;4994334;28;20174;-75
2021/04/14 08:22:00;;;;;;;1.10;1.00;;;;;;;5.09;74.99;101874.84;4994042;28;20331;-75
2021/04/14 08:24:40;;;;;;;1.03;0.90;;;;;;;5.09;74.14;101877.53;4996812;28;20189;-75
2021/04/14 08:27:14;;;;;;;9.43;1.60;;;;;;;5.23;75.41;101881.63;4994147;28;20176;-75
2021/04/14 08:29:39;;;;;;;2.47;0.90;;;;;;;5.22;75.56;101881.88;4994015;28;20551;-74
2021/04/14 08:32:14;;;;;;;4.63;1.50;;;;;;;5.13;75.89;101884.13;4993797;28;20224;-75
2021/04/14 08:34:52;;;;;;;0.80;0.80;;;;;;;5.19;73.53;101877.72;4993887;28;20184;-74
2021/04/14 08:37:19;;;;;;;1.60;1.33;;;;;;;5.37;74.96;101880.28;4994053;28;20224;-75
2021/04/14 08:40:06;;;;;;;1.27;1.20;;;;;;;5.35;73.93;101884.28;4993754;28;20653;-75
2021/04/14 08:42:35;;;;;;;4.17;1.17;;;;;;;5.14;75.15;101879.53;4993612;28;20235;-78
2021/04/14 08:45:03;;;;;;;0.57;0.57;;;;;;;4.93;72.25;101887.25;5008786;28;20586;-73
2021/04/14 08:47:31;;;;;;;1.63;0.57;;;;;;;4.86;71.39;101883.81;4993548;28;20636;-72
2021/04/14 08:50:01;;;;;;;1.43;1.33;;;;;;;5.08;72.96;101884.84;4993618;28;20185;-72
2021/04/14 08:52:27;;;;;;;0.93;0.80;;;;;;;5.16;74.58;101885.53;4993434;28;20276;-73
2021/04/14 08:54:53;;;;;;;1.87;1.73;;;;;;;5.04;73.37;101882.84;4993412;28;20288;-73
2021/04/14 08:57:19;;;;;;;1.87;1.07;;;;;;;5.21;74.43;101883.75;4993512;28;20216;-74
2021/04/14 08:59:45;;;;;;;1.30;1.10;;;;;;;5.18;73.83;101886.09;4993622;28;20208;-73
2021/04/14 09:02:15;;;;;;;12.80;0.63;;;;;;;5.10;72.04;101884.59;4993252;28;20280;-73
2021/04/14 09:04:48;;;;;;;2.80;1.10;;;;;;;4.89;72.15;101888.75;4992948;28;20189;-72
2021/04/14 09:07:25;;;;;;;2.77;0.90;;;;;;;5.14;72.62;101876.81;4993008;28;20177;-73
2021/04/14 09:09:52;;;;;;;1.63;0.80;;;;;;;4.86;71.54;101869.47;4993262;28;20180;-73
2021/04/14 09:12:18;;;;;;;0.80;0.80;;;;;;;5.01;72.90;101867.91;4992995;28;20181;-73
2021/04/14 09:14:44;;;;;;;2.30;0.37;;;;;;;5.49;72.67;101871.25;4992745;28;20183;-73
2021/04/14 09:17:12;;;;;;;0.33;0.33;;;;;;;5.49;70.32;101869.38;4993392;28;20200;-72
2021/04/14 09:19:43;;;;;;;1.57;1.17;;;;;;;5.63;70.41;101868.00;5007983;28;20189;-73
2021/04/14 09:22:15;;;;;;;1.70;1.60;;;;;;;5.75;68.22;101859.00;4992534;28;20216;-72
2021/04/14 09:24:59;;;;;;;3.23;0.70;;;;;;;5.85;68.25;101865.44;4992592;28;20181;-75
2021/04/14 09:27:42;;;;;;;1.17;1.07;;;;;;;6.03;67.84;101861.69;4991157;28;20633;-71
2021/04/14 09:30:28;;;;;;;1.80;1.03;;;;;;;6.21;66.90;101860.63;4991433;28;20181;-72
2021/04/14 09:32:54;;;;;;;0.80;0.80;;;;;;;6.40;65.82;101859.31;4992117;28;20260;-72
2021/04/14 09:35:28;;;;;;;1.80;0.83;;;;;;;6.37;63.18;101862.53;4992280;28;20220;-72
2021/04/14 09:38:07;;;;;;;0.40;0.40;;;;;;;5.92;61.89;101860.69;4992156;28;20188;-72
2021/04/14 09:40:35;;;;;;;0.77;0.50;;;;;;;5.92;63.12;101857.16;4991396;28;20235;-76
2021/04/14 09:43:01;;;;;;;1.90;0.63;;;;;;;5.75;63.12;101862.53;4992033;28;20552;-73
2021/04/14 09:45:26;;;;;;;1.27;0.60;;;;;;;5.94;66.78;101855.88;4992469;28;20263;-72
2021/04/14 09:47:54;;;;;;;2.30;0.93;;;;;;;5.90;67.78;101862.84;4991016;28;20224;-72
2021/04/14 09:50:28;;;;;;;2.67;1.87;;;;;;;5.87;67.28;101863.28;4991762;28;20655;-73
2021/04/14 09:52:58;;;;;;;0.10;0.10;;;;;;;5.65;66.90;101857.78;4990774;28;20181;-72
2021/04/14 09:55:31;;;;;;;11.03;0.50;;;;;;;5.42;67.49;101849.75;4990042;28;20327;-74
2021/04/14 09:58:03;;;;;;;0.40;0.40;;;;;;;5.33;68.18;101853.88;4984809;28;20173;-72
2021/04/14 10:00:30;;;;;;;1.17;1.17;;;;;;;5.33;69.35;101849.28;4992015;28;20256;-72
2021/04/14 10:03:00;;;;;;;0.50;0.50;;;;;;;5.27;69.00;101844.84;4972372;28;20220;-73
2021/04/14 10:05:31;;;;;;;0.70;0.70;;;;;;;5.27;68.68;101838.63;4972704;28;20170;-72
2021/04/14 10:08:03;;;;;;;0.50;0.50;;;;;;;5.35;68.29;101841.78;4972625;28;20185;-72
2021/04/14 10:10:28;;;;;;;0.30;0.30;;;;;;;5.56;68.77;101839.44;4972658;28;20182;-73
2021/04/14 10:12:54;;;;;;;2.93;0.90;;;;;;;5.92;68.16;101847.13;4973774;28;20170;-72
2021/04/14 10:15:39;;;;;;;0.33;0.30;;;;;;;6.24;66.20;101833.00;4991952;28;20208;-72
2021/04/14 10:18:18;;;;;;;0.50;0.50;;;;;;;6.42;67.94;101835.44;4991809;28;20196;-73
2021/04/14 10:20:43;;;;;;;1.20;0.93;;;;;;;6.32;66.75;101829.03;4991957;28;20181;-73
2021/04/14 10:23:12;;;;;;;0.47;0.37;;;;;;;6.17;65.84;101829.63;4991685;28;20212;-72
2021/04/14 10:25:40;;;;;;;3.63;0.87;;;;;;;6.07;64.70;101837.59;4991073;28;20554;-72
2021/04/14 10:28:15;;;;;;;0.20;0.20;;;;;;;5.92;63.86;101841.72;4991461;28;20292;-72
2021/04/14 10:30:50;;;;;;;0.37;0.30;;;;;;;5.90;63.78;101851.97;4991589;28;20172;-74
2021/04/14 10:33:25;;;;;;;1.43;0.80;;;;;;;5.81;65.96;101856.16;4991385;28;20181;-72
2021/04/14 10:35:51;;;;;;;0.50;0.50;;;;;;;5.12;71.38;101852.69;4991474;28;20177;-74
2021/04/14 10:38:34;;;;;;;0.87;0.73;;;;;;;4.00;76.95;101860.97;4991185;28;20231;-72
2021/04/14 10:41:11;;;;;;;2.27;0.57;;;;;;;3.87;79.10;101866.59;4991549;28;20316;-72
2021/04/14 10:43:36;;;;;;;1.20;0.80;;;;;;;3.82;79.96;101874.59;4990774;28;20204;-72
2021/04/14 10:46:12;;;;;;;5.20;4.77;;;;;;;4.14;81.19;101867.00;4991304;28;20239;-72
2021/04/14 10:48:47;;;;;;;0.83;0.60;;;;;;;4.34;80.45;101864.81;4991359;28;20184;-73
2021/04/14 10:51:22;;;;;;;4.57;0.57;;;;;;;4.15;81.68;101863.25;4991478;28;20188;-71
2021/04/14 10:53:54;;;;;;;0.30;0.30;;;;;;;3.82;84.44;101870.00;4990987;28;20208;-75
2021/04/14 10:56:26;;;;;;;0.30;0.30;;;;;;;3.52;84.98;101853.00;4991883;28;20192;-75
2021/04/14 10:58:53;;;;;;;0.10;0.10;;;;;;;3.48;87.02;101854.50;4991814;28;20174;-73
2021/04/14 11:01:33;;;;;;;0.33;0.33;;;;;;;3.33;85.19;101854.94;4991688;28;20188;-75
2021/04/14 11:04:21;;;;;;;0.33;0.33;;;;;;;3.37;86.18;101847.19;4991610;28;20166;-72
2021/04/14 11:06:50;;;;;;;0.00;0.00;;;;;;;3.42;85.83;101839.22;4991665;28;20173;-74
2021/04/14 11:09:18;;;;;;;0.60;0.50;;;;;;;3.47;85.04;101837.50;4991482;28;20217;-74
2021/04/14 11:11:44;;;;;;;1.47;1.47;;;;;;;3.74;86.48;101840.59;4991661;28;20177;-73
2021/04/14 11:14:11;;;;;;;0.60;0.60;;;;;;;4.11;84.68;101832.31;4991404;28;20173;-76
2021/04/14 11:16:38;;;;;;;0.40;0.40;;;;;;;4.66;84.31;101821.13;4991691;28;20545;-73
2021/04/14 11:19:11;;;;;;;0.50;0.50;;;;;;;4.87;79.38;101819.66;4993395;28;20272;-72
2021/04/14 11:21:37;;;;;;;0.20;0.20;;;;;;;4.97;76.64;101817.16;4991366;28;20694;-72
2021/04/14 11:24:07;;;;;;;0.20;0.20;;;;;;;5.18;78.44;101808.34;4991228;28;20178;-72
2021/04/14 11:26:36;;;;;;;0.20;0.10;;;;;;;5.50;75.99;101816.03;4991519;28;20174;-72
2021/04/14 11:29:03;;;;;;;0.00;0.00;;;;;;;5.85;78.91;101803.06;4993447;28;20636;-72
2021/04/14 11:31:41;;;;;;;0.97;0.73;;;;;;;5.90;76.00;101802.34;5010979;28;20180;-72
2021/04/14 11:34:28;;;;;;;0.40;0.40;;;;;;;5.99;75.43;101803.59;5010987;28;20536;-72
2021/04/14 11:37:04;;;;;;;1.47;1.20;;;;;;;6.07;75.70;101802.34;5001978;28;20510;-72
2021/04/14 11:40:03;;;;;;;0.27;0.27;;;;;;;6.16;74.57;101804.38;4995541;28;20191;-71
2021/04/14 11:42:44;;;;;;;0.20;0.20;;;;;;;6.28;72.37;101800.75;4995197;28;20204;-72
2021/04/14 11:45:09;;;;;;;0.70;0.70;;;;;;;6.66;76.64;101791.78;4995219;28;20239;-71
2021/04/14 11:47:38;;;;;;;4.93;0.70;;;;;;;6.95;70.61;101798.69;4994973;28;20624;-72
2021/04/14 11:50:14;;;;;;;0.43;0.40;;;;;;;6.92;64.33;101799.16;4994723;28;20173;-72